Time;durP1;ratioP1;P1;durP2;ratioP2;P2;SDS_P1;SDS_P2;PMS_P1;PMS_P2;Temp;Humidity;BMP_temperature;BMP_pressure;BME280_temperature;BME280_humidity;BME280_pressure;Samples;Min_cycle;Max_cycle;Signal;HPM_P1;HPM_P2
2024/03/28 00:01:25;;;;;;;14.48;8.85;;;;;;;11.24;100.00;97624.06;5110206;29;20023;-75
2024/03/28 00:03:55;;;;;;;13.48;8.52;;;;;;;11.24;99.98;97621.44;5100517;29;20464;-75
2024/03/28 00:06:26;;;;;;;15.55;8.35;;;;;;;11.23;100.00;97622.41;5098469;29;20028;-75
2024/03/28 00:08:56;;;;;;;15.45;8.52;;;;;;;11.27;100.00;97618.56;5097908;29;20020;-75
2024/03/28 00:11:26;;;;;;;14.02;8.15;;;;;;;11.10;100.00;97618.38;5098531;29;20019;-77
2024/03/28 00:13:57;;;;;;;13.23;8.50;;;;;;;11.15;100.00;97632.69;5113175;28;20027;-75
2024/03/28 00:16:27;;;;;;;15.77;9.15;;;;;;;11.04;100.00;97624.94;5100277;29;20035;-75
2024/03/28 00:18:57;;;;;;;13.82;8.75;;;;;;;11.12;100.00;97622.47;5097996;29;20513;-74
2024/03/28 00:21:29;;;;;;;14.25;7.78;;;;;;;11.07;100.00;97619.44;5102280;29;20354;-74
2024/03/28 00:23:59;;;;;;;14.65;9.18;;;;;;;11.07;100.00;97611.59;5100165;28;20136;-76
2024/03/28 00:26:30;;;;;;;14.65;8.48;;;;;;;11.16;100.00;97607.38;5094825;29;20027;-76
2024/03/28 00:29:00;;;;;;;15.65;9.00;;;;;;;11.19;100.00;97602.72;5104106;28;20027;-74
2024/03/28 00:31:31;;;;;;;15.73;8.75;;;;;;;11.20;100.00;97593.94;5103169;28;20175;-74
2024/03/28 00:34:01;;;;;;;14.10;8.50;;;;;;;11.09;100.00;97588.78;5100070;28;21226;-73
2024/03/28 00:36:33;;;;;;;13.00;8.55;;;;;;;11.13;100.00;97586.75;5102519;29;20110;-75
2024/03/28 00:39:03;;;;;;;14.35;8.80;;;;;;;10.99;100.00;97570.59;5097158;28;20406;-75
2024/03/28 00:41:34;;;;;;;14.80;9.02;;;;;;;11.07;100.00;97551.50;5098499;28;20028;-75
2024/03/28 00:44:04;;;;;;;15.00;9.05;;;;;;;11.05;100.00;97542.97;5100160;28;20020;-75
2024/03/28 00:46:34;;;;;;;15.90;8.45;;;;;;;11.03;100.00;97528.38;5103064;28;20023;-75
2024/03/28 00:49:04;;;;;;;15.50;9.10;;;;;;;11.02;100.00;97555.47;5097824;29;20485;-75
2024/03/28 00:51:35;;;;;;;14.05;8.70;;;;;;;10.97;100.00;97582.94;5099749;29;20028;-74
2024/03/28 00:54:05;;;;;;;14.80;9.07;;;;;;;10.90;100.00;97593.09;5101882;28;20046;-76
2024/03/28 00:56:35;;;;;;;14.77;8.65;;;;;;;10.99;100.00;97584.47;5099236;29;20034;-74
2024/03/28 00:59:06;;;;;;;15.38;9.43;;;;;;;11.05;100.00;97592.63;5101387;28;20542;-76
2024/03/28 01:01:36;;;;;;;16.70;10.35;;;;;;;10.90;100.00;97600.09;5114632;28;20038;-72
2024/03/28 01:04:06;;;;;;;14.88;9.20;;;;;;;11.00;100.00;97603.59;5099646;28;20031;-73
2024/03/28 01:06:36;;;;;;;15.10;9.02;;;;;;;11.12;100.00;97606.00;5088395;29;20395;-72
2024/03/28 01:09:08;;;;;;;16.38;9.70;;;;;;;10.96;100.00;97599.56;5092087;28;20054;-73
2024/03/28 01:11:38;;;;;;;16.05;9.70;;;;;;;11.02;100.00;97599.06;5102399;28;20107;-75
2024/03/28 01:14:08;;;;;;;14.45;9.40;;;;;;;11.06;100.00;97601.25;5104852;29;20027;-74
2024/03/28 01:16:39;;;;;;;14.27;9.38;;;;;;;10.94;100.00;97606.72;5103082;29;20027;-75
2024/03/28 01:19:09;;;;;;;12.82;8.45;;;;;;;11.00;100.00;97601.78;5104177;29;20027;-75
2024/03/28 01:21:39;;;;;;;16.90;9.77;;;;;;;10.92;100.00;97611.22;5104189;28;20027;-75
2024/03/28 01:24:10;;;;;;;15.93;9.25;;;;;;;11.04;100.00;97614.47;5103546;28;20049;-74
2024/03/28 01:26:40;;;;;;;15.85;9.52;;;;;;;11.04;100.00;97614.47;5105344;28;20058;-75
2024/03/28 01:29:10;;;;;;;17.35;9.57;;;;;;;11.14;100.00;97612.72;5104095;28;20110;-76
2024/03/28 01:31:41;;;;;;;15.48;9.27;;;;;;;11.07;100.00;97609.00;5098576;28;20411;-75
2024/03/28 01:34:11;;;;;;;14.95;9.43;;;;;;;11.02;100.00;97607.72;5101768;29;20046;-74
2024/03/28 01:36:41;;;;;;;14.88;8.95;;;;;;;11.01;100.00;97615.69;5099651;29;20035;-74
2024/03/28 01:39:11;;;;;;;15.75;8.85;;;;;;;10.96;100.00;97613.47;5097327;29;20055;-76
2024/03/28 01:41:42;;;;;;;16.83;9.02;;;;;;;11.03;100.00;97617.22;5103456;29;20035;-75
2024/03/28 01:44:12;;;;;;;15.38;8.48;;;;;;;11.03;100.00;97625.03;5097158;28;20155;-75
2024/03/28 01:46:49;;;;;;;15.85;8.82;;;;;;;10.94;100.00;97643.28;5101856;29;20035;-74
2024/03/28 01:49:20;;;;;;;17.67;8.25;;;;;;;10.74;100.00;97650.19;5099935;29;20062;-74
2024/03/28 01:51:51;;;;;;;16.35;8.20;;;;;;;10.84;100.00;97648.44;5100214;28;20515;-75
2024/03/28 01:54:22;;;;;;;16.55;8.13;;;;;;;10.83;100.00;97669.50;5103624;29;20031;-76
2024/03/28 01:56:54;;;;;;;18.17;8.48;;;;;;;10.76;100.00;97681.38;5101626;28;20083;-73
2024/03/28 01:59:25;;;;;;;17.17;8.02;;;;;;;10.74;100.00;97693.75;5099832;29;20024;-74
2024/03/28 02:01:57;;;;;;;19.10;8.38;;;;;;;10.73;100.00;97679.03;5099227;28;20031;-76
2024/03/28 02:04:28;;;;;;;19.02;9.25;;;;;;;10.59;100.00;97663.66;5116719;28;20043;-76
2024/03/28 02:06:59;;;;;;;18.92;8.82;;;;;;;10.53;100.00;97664.16;5100894;28;20030;-75
2024/03/28 02:09:29;;;;;;;18.67;8.80;;;;;;;10.45;100.00;97650.91;5101695;28;20027;-76
2024/03/28 02:12:00;;;;;;;22.10;9.68;;;;;;;10.46;100.00;97648.16;5100112;29;20518;-75
2024/03/28 02:14:30;;;;;;;18.73;9.68;;;;;;;10.26;100.00;97645.50;5101178;29;20038;-73
2024/03/28 02:17:05;;;;;;;19.02;9.02;;;;;;;10.28;100.00;97654.03;5100789;29;20026;-76
2024/03/28 02:19:35;;;;;;;19.15;8.75;;;;;;;10.25;100.00;97646.47;5100405;29;20074;-74
2024/03/28 02:22:06;;;;;;;23.80;9.68;;;;;;;10.21;100.00;97642.47;5101051;29;20027;-75
2024/03/28 02:24:37;;;;;;;13.95;7.65;;;;;;;10.17;100.00;97646.28;5101715;29;20480;-74
2024/03/28 02:27:07;;;;;;;14.73;6.95;;;;;;;10.03;100.00;97636.91;5095587;29;20110;-73
2024/03/28 02:29:37;;;;;;;14.98;7.05;;;;;;;9.84;100.00;97635.88;5097260;28;20038;-76
2024/03/28 02:32:07;;;;;;;12.02;5.75;;;;;;;9.87;100.00;97622.59;5099710;29;20024;-75
2024/03/28 02:34:38;;;;;;;14.07;6.40;;;;;;;9.87;100.00;97638.25;5101477;29;20035;-76
2024/03/28 02:37:08;;;;;;;13.85;6.20;;;;;;;9.85;100.00;97661.00;5102878;29;20035;-74
2024/03/28 02:39:38;;;;;;;11.35;5.10;;;;;;;9.73;100.00;97667.19;5101500;29;20693;-76
2024/03/28 02:42:08;;;;;;;12.32;5.25;;;;;;;9.54;100.00;97675.63;5099353;29;20061;-75
2024/03/28 02:44:39;;;;;;;9.80;5.03;;;;;;;9.55;100.00;97679.06;5102849;29;20035;-72
2024/03/28 02:47:09;;;;;;;11.35;5.18;;;;;;;9.62;100.00;97680.25;5101703;29;20043;-74
2024/03/28 02:49:39;;;;;;;9.85;4.55;;;;;;;9.38;100.00;97682.13;5099372;28;20042;-72
2024/03/28 02:52:10;;;;;;;9.93;4.30;;;;;;;9.53;100.00;97691.38;5098738;29;20039;-74
2024/03/28 02:54:40;;;;;;;11.48;4.72;;;;;;;9.46;100.00;97703.25;5100252;29;20058;-75
2024/03/28 02:57:21;;;;;;;9.45;4.53;;;;;;;9.40;100.00;97701.09;5098489;28;20068;-75
2024/03/28 02:59:52;;;;;;;6.65;3.20;;;;;;;9.23;100.00;97691.13;5096311;28;20419;-74
2024/03/28 03:02:23;;;;;;;6.47;3.17;;;;;;;9.15;100.00;97686.47;5100195;28;20032;-74
2024/03/28 03:04:53;;;;;;;4.93;2.42;;;;;;;9.06;100.00;97690.75;5099174;28;20471;-75
2024/03/28 03:07:23;;;;;;;5.53;2.55;;;;;;;8.94;100.00;97692.50;5094549;28;20059;-77
2024/03/28 03:09:54;;;;;;;5.32;2.38;;;;;;;8.89;100.00;97694.59;5100090;28;20036;-76
2024/03/28 03:12:24;;;;;;;5.35;2.40;;;;;;;8.87;100.00;97717.31;5101918;29;20028;-76
2024/03/28 03:14:54;;;;;;;5.43;2.75;;;;;;;8.71;100.00;97695.97;5117904;28;20574;-76
2024/03/28 03:17:25;;;;;;;5.78;2.50;;;;;;;8.68;100.00;97692.75;5103788;28;20027;-74
2024/03/28 03:19:58;;;;;;;4.35;2.25;;;;;;;8.65;100.00;97701.63;5108693;28;20046;-73
2024/03/28 03:22:29;;;;;;;4.28;2.20;;;;;;;8.67;100.00;97704.97;5107456;29;20041;-76
2024/03/28 03:25:09;;;;;;;5.30;2.50;;;;;;;8.56;100.00;97717.91;5103753;28;20027;-74
2024/03/28 03:36:11;;;;;;;6.03;2.53;;;;;;;8.64;100.00;97720.81;5106831;28;20046;-75
2024/03/28 03:38:41;;;;;;;6.78;3.13;;;;;;;8.66;100.00;97724.13;5107094;28;20042;-74
2024/03/28 03:41:11;;;;;;;4.22;2.38;;;;;;;8.59;100.00;97735.91;5103891;29;20031;-74
2024/03/28 03:43:41;;;;;;;4.30;2.35;;;;;;;8.61;100.00;97726.25;5105804;29;20455;-74
2024/03/28 03:46:12;;;;;;;5.18;2.10;;;;;;;8.56;100.00;97725.72;5104254;28;20046;-76
2024/03/28 03:48:43;;;;;;;5.80;2.28;;;;;;;8.68;100.00;97724.84;5104852;28;20134;-72
2024/03/28 03:51:16;;;;;;;6.43;2.42;;;;;;;8.63;100.00;97721.75;5104722;29;20067;-74
2024/03/28 03:53:47;;;;;;;3.95;1.90;;;;;;;8.61;100.00;97726.25;5101576;29;20035;-74
2024/03/28 03:56:17;;;;;;;3.33;1.77;;;;;;;8.57;100.00;97735.19;5106246;28;20392;-76
2024/03/28 03:58:48;;;;;;;3.30;1.55;;;;;;;8.54;100.00;97727.59;5105752;28;20031;-74
2024/03/28 04:01:18;;;;;;;2.55;1.30;;;;;;;8.41;100.00;97724.22;5101241;28;20441;-75
2024/03/28 04:03:49;;;;;;;3.33;1.63;;;;;;;8.37;100.00;97729.78;5100403;28;20035;-75
2024/03/28 04:06:19;;;;;;;2.47;1.10;;;;;;;8.40;100.00;97740.78;5104105;28;20208;-77
2024/03/28 04:08:49;;;;;;;2.25;1.35;;;;;;;8.37;100.00;97728.00;5098221;29;20119;-75
2024/03/28 04:11:19;;;;;;;2.83;1.63;;;;;;;8.39;100.00;97726.13;5101842;28;20047;-76
2024/03/28 04:13:50;;;;;;;2.97;1.50;;;;;;;8.26;100.00;97720.16;5102791;28;20036;-74
2024/03/28 04:16:20;;;;;;;3.58;1.88;;;;;;;8.18;100.00;97727.66;5105147;28;20418;-75
2024/03/28 04:18:51;;;;;;;3.08;1.70;;;;;;;8.00;100.00;97722.88;5100721;28;20040;-76
2024/03/28 04:21:22;;;;;;;2.88;1.40;;;;;;;8.01;100.00;97716.78;5103348;28;20558;-74
2024/03/28 04:23:52;;;;;;;2.65;1.50;;;;;;;8.01;100.00;97729.78;5102936;28;20031;-76
2024/03/28 04:26:22;;;;;;;3.35;1.50;;;;;;;8.11;100.00;97726.41;5103726;28;20033;-75
2024/03/28 04:28:52;;;;;;;2.08;1.17;;;;;;;8.05;100.00;97726.00;5116860;28;20035;-74
2024/03/28 04:31:23;;;;;;;1.95;1.27;;;;;;;8.04;100.00;97724.34;5101466;28;20035;-76
2024/03/28 04:33:54;;;;;;;2.38;1.23;;;;;;;8.02;100.00;97727.06;5102156;29;20491;-75
2024/03/28 04:36:24;;;;;;;2.85;1.30;;;;;;;7.92;100.00;97720.00;5104122;28;20039;-74
2024/03/28 04:38:54;;;;;;;1.85;0.93;;;;;;;7.98;100.00;97735.16;5101439;28;20026;-76
2024/03/28 04:41:24;;;;;;;1.02;0.73;;;;;;;8.05;100.00;97736.41;5101105;29;20422;-75
2024/03/28 04:43:55;;;;;;;1.45;0.82;;;;;;;8.00;100.00;97744.53;5101293;28;20036;-74
2024/03/28 04:46:25;;;;;;;2.05;0.88;;;;;;;7.88;100.00;97749.78;5103306;29;20024;-76
2024/03/28 04:48:55;;;;;;;1.20;0.80;;;;;;;7.93;100.00;97758.06;5099643;28;20491;-75
2024/03/28 04:51:26;;;;;;;1.83;0.85;;;;;;;7.97;100.00;97749.97;5103883;28;20032;-75
2024/03/28 04:53:56;;;;;;;1.58;0.68;;;;;;;7.94;100.00;97744.97;5103273;28;20448;-71
2024/03/28 04:56:27;;;;;;;1.40;0.88;;;;;;;7.95;100.00;97741.44;5102089;29;20023;-73
2024/03/28 04:58:57;;;;;;;1.20;0.68;;;;;;;7.96;100.00;97735.28;5101752;28;20455;-72
2024/03/28 05:01:27;;;;;;;1.25;0.80;;;;;;;7.90;100.00;97725.31;5101949;29;20031;-73
2024/03/28 05:03:58;;;;;;;1.42;0.80;;;;;;;7.90;100.00;97712.31;5097801;28;20027;-71
2024/03/28 05:06:28;;;;;;;1.95;0.90;;;;;;;8.01;100.00;97715.00;5117454;28;20126;-74
2024/03/28 05:08:58;;;;;;;1.35;0.75;;;;;;;7.98;100.00;97717.81;5098603;28;20036;-71
2024/03/28 05:11:28;;;;;;;1.13;0.70;;;;;;;7.95;100.00;97712.00;5101522;29;20060;-74
2024/03/28 05:13:59;;;;;;;1.33;0.80;;;;;;;7.87;100.00;97714.31;5094854;29;20111;-72
2024/03/28 05:16:29;;;;;;;1.65;0.90;;;;;;;7.85;100.00;97722.22;5102619;28;20391;-73
2024/03/28 05:18:59;;;;;;;1.63;0.95;;;;;;;7.83;100.00;97723.25;5096998;28;20032;-73
2024/03/28 05:21:30;;;;;;;0.98;0.70;;;;;;;7.92;100.00;97718.25;5102317;29;20525;-74
2024/03/28 05:24:00;;;;;;;2.10;1.00;;;;;;;7.90;100.00;97716.69;5100087;28;20027;-73
2024/03/28 05:26:31;;;;;;;1.63;0.93;;;;;;;7.73;100.00;97725.66;5101896;29;20023;-74
2024/03/28 05:29:02;;;;;;;1.50;0.90;;;;;;;7.79;100.00;97722.66;5096995;28;20046;-72
2024/03/28 05:31:32;;;;;;;1.30;0.80;;;;;;;7.78;100.00;97715.78;5101880;28;20023;-72
2024/03/28 05:34:02;;;;;;;2.15;0.90;;;;;;;7.90;100.00;97727.09;5097576;29;20621;-72
2024/03/28 05:36:33;;;;;;;1.52;0.98;;;;;;;7.82;100.00;97735.44;5119020;28;20028;-71
2024/03/28 05:39:05;;;;;;;1.80;1.10;;;;;;;7.86;100.00;97723.88;5109402;28;20376;-72
2024/03/28 05:41:35;;;;;;;1.75;1.10;;;;;;;7.91;100.00;97719.16;5098984;28;20035;-73
2024/03/28 05:44:05;;;;;;;2.10;1.00;;;;;;;7.99;100.00;97711.69;5097287;29;20395;-74
2024/03/28 05:46:35;;;;;;;3.08;0.98;;;;;;;8.13;100.00;97714.13;5099394;28;20035;-73
2024/03/28 05:49:06;;;;;;;2.10;1.30;;;;;;;8.08;100.00;97705.81;5092311;29;20058;-74
2024/03/28 05:51:37;;;;;;;1.70;1.13;;;;;;;8.10;100.00;97706.56;5099844;28;20557;-73
2024/03/28 05:54:07;;;;;;;1.98;0.90;;;;;;;8.12;100.00;97706.41;5114964;28;20039;-73
2024/03/28 05:56:38;;;;;;;2.38;1.10;;;;;;;8.15;100.00;97701.84;5104116;29;20019;-74
2024/03/28 05:59:08;;;;;;;2.33;1.20;;;;;;;8.11;100.00;97708.22;5099422;29;20654;-74
2024/03/28 06:01:38;;;;;;;2.65;1.35;;;;;;;8.19;100.00;97705.09;5100353;29;20077;-74
2024/03/28 06:04:09;;;;;;;1.92;1.10;;;;;;;8.21;100.00;97706.63;5097832;29;20478;-74
2024/03/28 06:06:39;;;;;;;2.20;1.35;;;;;;;8.39;100.00;97707.91;5099780;29;20636;-74
2024/03/28 06:09:09;;;;;;;3.17;1.67;;;;;;;8.20;100.00;97706.75;5097629;28;20028;-74
2024/03/28 06:11:39;;;;;;;2.75;1.30;;;;;;;8.32;100.00;97703.25;5101468;29;20082;-74
2024/03/28 06:14:10;;;;;;;2.00;1.33;;;;;;;8.43;100.00;97696.34;5110223;28;20030;-74
2024/03/28 06:16:40;;;;;;;1.88;1.13;;;;;;;8.47;100.00;97703.00;5100622;29;20074;-74
2024/03/28 06:19:10;;;;;;;2.38;1.30;;;;;;;8.69;100.00;97695.25;5101567;29;20027;-74
2024/03/28 06:21:44;;;;;;;2.17;1.15;;;;;;;8.84;100.00;97695.88;5099923;29;20039;-73
2024/03/28 06:24:14;;;;;;;1.90;1.10;;;;;;;8.76;100.00;97699.06;5099911;29;20307;-73
2024/03/28 06:26:47;;;;;;;2.38;1.23;;;;;;;8.94;100.00;97692.50;5102322;29;20030;-73
2024/03/28 06:29:17;;;;;;;1.95;0.90;;;;;;;8.92;100.00;97685.75;5102348;28;20027;-73
2024/03/28 06:31:47;;;;;;;3.22;1.08;;;;;;;8.80;100.00;97692.69;5095218;29;20038;-71
2024/03/28 06:34:18;;;;;;;1.60;1.00;;;;;;;8.88;100.00;97676.50;5101298;28;20059;-73
2024/03/28 06:36:48;;;;;;;1.10;0.80;;;;;;;9.08;100.00;97671.44;5115443;28;20035;-72
2024/03/28 06:39:19;;;;;;;1.55;1.00;;;;;;;9.07;100.00;97671.56;5104766;28;20023;-73
2024/03/28 06:41:49;;;;;;;2.38;1.30;;;;;;;9.36;100.00;97671.00;5100163;28;20031;-73
2024/03/28 06:44:20;;;;;;;1.30;0.80;;;;;;;9.46;100.00;97671.97;5103353;28;20090;-74
2024/03/28 06:46:50;;;;;;;1.08;0.70;;;;;;;9.23;100.00;97678.09;5100859;28;20041;-73
2024/03/28 06:49:20;;;;;;;1.40;1.00;;;;;;;9.36;100.00;97674.44;5100394;29;20042;-74
2024/03/28 06:51:50;;;;;;;1.85;1.00;;;;;;;9.53;100.00;97665.31;5100036;28;20031;-73
2024/03/28 06:54:21;;;;;;;1.42;0.90;;;;;;;9.34;99.32;97654.66;5101998;28;20338;-73
2024/03/28 06:56:51;;;;;;;1.65;0.98;;;;;;;9.65;100.00;97670.41;5101657;28;20475;-74
2024/03/28 06:59:21;;;;;;;1.20;0.80;;;;;;;9.78;99.38;97665.03;5104548;29;20089;-74
2024/03/28 07:01:53;;;;;;;1.23;0.82;;;;;;;9.75;98.80;97660.91;5101557;28;20038;-74
2024/03/28 07:04:23;;;;;;;1.70;1.00;;;;;;;10.09;99.28;97678.19;5106359;28;20030;-73
2024/03/28 07:06:54;;;;;;;1.42;0.82;;;;;;;9.77;99.03;97692.06;5100164;29;20027;-73
2024/03/28 07:09:24;;;;;;;0.95;0.75;;;;;;;10.09;100.00;97685.19;5100752;29;20415;-73
2024/03/28 07:11:55;;;;;;;1.40;0.80;;;;;;;10.35;97.42;97673.50;5100685;28;20050;-74
2024/03/28 07:14:25;;;;;;;1.30;0.82;;;;;;;11.48;93.91;97676.88;5103752;28;20023;-74
2024/03/28 07:16:55;;;;;;;1.23;0.80;;;;;;;12.88;84.41;97673.84;5104793;28;20023;-74
2024/03/28 07:19:26;;;;;;;1.02;0.60;;;;;;;13.73;78.26;97667.59;5105598;28;20019;-75
2024/03/28 07:21:56;;;;;;;1.23;0.52;;;;;;;16.25;73.10;97660.44;5101524;28;20106;-74
2024/03/28 07:24:27;;;;;;;0.65;0.50;;;;;;;16.46;69.33;97680.13;5106156;29;20391;-74
2024/03/28 07:26:57;;;;;;;0.65;0.40;;;;;;;17.57;63.38;97670.59;5103000;28;20035;-74
2024/03/28 07:29:27;;;;;;;0.80;0.50;;;;;;;17.61;66.95;97678.00;5103077;28;20099;-75
2024/03/28 07:31:58;;;;;;;0.90;0.50;;;;;;;16.99;65.64;97680.53;5099518;28;20350;-74
2024/03/28 07:34:28;;;;;;;0.80;0.60;;;;;;;18.35;61.03;97672.31;5106312;28;20024;-75
2024/03/28 07:36:58;;;;;;;0.90;0.40;;;;;;;18.03;63.57;97665.31;5098706;28;20277;-75
2024/03/28 07:39:29;;;;;;;0.65;0.40;;;;;;;17.93;62.64;97661.22;5101502;28;20126;-74
2024/03/28 07:41:59;;;;;;;0.43;0.32;;;;;;;19.97;61.49;97665.28;5099976;29;20411;-74
2024/03/28 07:44:29;;;;;;;1.00;0.50;;;;;;;19.30;59.58;97671.63;5105146;29;20031;-74
2024/03/28 07:47:00;;;;;;;0.73;0.40;;;;;;;18.40;62.47;97664.69;5104943;28;20023;-75
2024/03/28 07:49:30;;;;;;;1.23;0.30;;;;;;;19.87;58.28;97664.75;5105929;28;20114;-75
2024/03/28 07:52:02;;;;;;;0.60;0.30;;;;;;;18.99;61.91;97680.66;5106147;28;20023;-75
2024/03/28 07:54:32;;;;;;;0.57;0.38;;;;;;;17.95;62.02;97689.13;5106197;28;20030;-75
2024/03/28 07:57:03;;;;;;;1.90;0.60;;;;;;;16.38;66.73;97700.38;5101162;28;20402;-74
2024/03/28 07:59:33;;;;;;;1.33;0.68;;;;;;;17.23;67.76;97696.34;5105274;29;20315;-73
2024/03/28 08:02:03;;;;;;;1.30;0.70;;;;;;;17.98;65.88;97687.97;5101401;28;20031;-73
2024/03/28 08:04:34;;;;;;;2.55;0.90;;;;;;;18.97;61.65;97680.81;5104309;28;20042;-73
2024/03/28 08:07:04;;;;;;;2.40;1.00;;;;;;;19.62;61.49;97681.09;5101281;28;20027;-75
2024/03/28 08:09:34;;;;;;;1.17;0.82;;;;;;;15.92;68.45;97699.03;5102394;29;20273;-72
2024/03/28 08:12:08;;;;;;;1.50;1.00;;;;;;;16.17;69.06;97687.59;5100376;29;20095;-75
2024/03/28 08:14:39;;;;;;;1.45;0.88;;;;;;;15.43;68.74;97683.09;5102720;29;20049;-75
2024/03/28 08:17:09;;;;;;;1.80;1.02;;;;;;;15.88;71.72;97681.06;5100102;29;20077;-74
2024/03/28 08:19:39;;;;;;;1.80;1.17;;;;;;;16.77;70.49;97670.63;5101493;28;20493;-75
2024/03/28 08:22:10;;;;;;;1.33;1.00;;;;;;;17.23;68.60;97668.16;5102790;29;20090;-75
2024/03/28 08:24:41;;;;;;;2.13;1.33;;;;;;;17.00;68.23;97672.44;5101366;29;20035;-76
2024/03/28 08:27:11;;;;;;;1.83;1.38;;;;;;;18.33;64.07;97669.03;5099440;29;20034;-75
2024/03/28 08:29:41;;;;;;;2.20;1.48;;;;;;;19.12;62.53;97665.81;5096960;28;20122;-73
2024/03/28 08:32:12;;;;;;;2.47;1.38;;;;;;;19.55;62.28;97665.13;5103459;28;20263;-75
2024/03/28 08:34:43;;;;;;;2.55;1.35;;;;;;;20.68;61.32;97668.84;5102839;28;20031;-72
2024/03/28 08:37:13;;;;;;;1.70;1.25;;;;;;;20.45;59.59;97670.00;5101992;29;20039;-73
2024/03/28 08:39:44;;;;;;;1.50;1.10;;;;;;;21.23;59.08;97665.53;5106927;29;20034;-75
2024/03/28 08:42:14;;;;;;;2.30;1.40;;;;;;;21.59;58.43;97664.38;5105282;28;20046;-75
2024/03/28 08:44:45;;;;;;;1.80;1.20;;;;;;;20.97;58.22;97667.94;5102850;28;20077;-74
2024/03/28 08:47:16;;;;;;;2.22;1.50;;;;;;;22.22;56.79;97658.84;5099320;28;20410;-74
2024/03/28 08:49:46;;;;;;;1.90;1.20;;;;;;;20.51;59.99;97668.44;5113601;28;20042;-75
2024/03/28 08:52:18;;;;;;;1.92;1.30;;;;;;;22.10;56.75;97654.28;5102275;28;20654;-74
2024/03/28 08:54:48;;;;;;;1.67;1.00;;;;;;;21.15;57.81;97663.00;5099292;29;20115;-75
2024/03/28 08:57:18;;;;;;;1.77;1.23;;;;;;;20.30;59.85;97655.16;5098889;29;20130;-75
2024/03/28 08:59:52;;;;;;;1.77;1.23;;;;;;;21.19;56.60;97664.25;5103502;28;20059;-74
2024/03/28 09:02:27;;;;;;;2.05;1.50;;;;;;;21.96;56.26;97637.44;5102109;28;20212;-75
2024/03/28 09:04:57;;;;;;;2.30;1.30;;;;;;;22.68;56.49;97634.03;5099714;29;20027;-75
2024/03/28 09:07:28;;;;;;;1.50;1.03;;;;;;;24.44;54.19;97644.56;5101283;28;20095;-75
2024/03/28 09:09:59;;;;;;;2.00;1.30;;;;;;;22.60;54.83;97652.03;5104278;28;20266;-75
2024/03/28 09:12:32;;;;;;;1.30;0.90;;;;;;;22.99;54.48;97652.94;5103204;28;20031;-75
2024/03/28 09:15:05;;;;;;;1.52;0.95;;;;;;;23.62;53.20;97647.03;5094935;28;20038;-74
2024/03/28 09:17:35;;;;;;;2.38;1.23;;;;;;;22.43;53.13;97650.75;5118918;28;20115;-72
2024/03/28 09:20:06;;;;;;;1.83;1.17;;;;;;;21.89;56.62;97649.06;5102465;29;20121;-74
2024/03/28 09:22:37;;;;;;;1.83;1.15;;;;;;;22.34;56.61;97648.44;5102936;28;20482;-75
2024/03/28 09:25:09;;;;;;;1.08;0.98;;;;;;;21.71;59.86;97648.75;5116410;28;20055;-75
2024/03/28 09:27:40;;;;;;;1.67;1.15;;;;;;;20.39;61.84;97664.63;5101653;29;20039;-75
2024/03/28 09:30:11;;;;;;;2.42;1.33;;;;;;;19.76;63.23;97657.25;5100333;29;20094;-74
2024/03/28 09:32:45;;;;;;;1.92;1.10;;;;;;;18.93;65.23;97658.34;5103187;29;20521;-75
2024/03/28 09:35:15;;;;;;;2.03;1.23;;;;;;;17.78;65.56;97663.75;5096685;29;20115;-74
2024/03/28 09:37:46;;;;;;;1.58;1.10;;;;;;;16.72;66.52;97666.81;5102479;28;20110;-74
2024/03/28 09:40:17;;;;;;;1.60;1.05;;;;;;;17.27;69.84;97658.06;5106415;28;20119;-74
2024/03/28 09:42:47;;;;;;;1.65;1.08;;;;;;;17.61;69.38;97650.75;5100179;28;20562;-74
2024/03/28 09:45:18;;;;;;;2.50;1.20;;;;;;;17.54;68.03;97655.09;5101168;28;20023;-75
2024/03/28 09:47:51;;;;;;;1.65;1.10;;;;;;;17.46;68.84;97661.19;5117606;28;20561;-74
2024/03/28 09:50:23;;;;;;;1.70;1.17;;;;;;;17.01;69.57;97678.53;5101968;28;20094;-74
2024/03/28 09:52:55;;;;;;;1.85;1.23;;;;;;;17.82;70.47;97661.63;5098883;28;20038;-72
2024/03/28 09:55:25;;;;;;;1.90;1.30;;;;;;;17.61;68.21;97651.59;5103223;28;20034;-73
2024/03/28 09:57:59;;;;;;;1.92;1.00;;;;;;;17.11;68.16;97629.06;5099935;28;20411;-74
2024/03/28 10:00:30;;;;;;;1.20;0.85;;;;;;;17.32;69.49;97630.16;5101649;28;20047;-74
2024/03/28 10:03:20;;;;;;;0.90;0.70;;;;;;;17.36;67.39;97631.53;5100307;28;20383;-74
2024/03/28 10:05:51;;;;;;;1.08;0.80;;;;;;;17.26;66.72;97624.75;5102705;28;20031;-75
2024/03/28 10:08:24;;;;;;;1.20;0.70;;;;;;;17.95;69.73;97627.53;5102318;29;20082;-74
2024/03/28 10:10:58;;;;;;;1.13;0.70;;;;;;;17.51;66.20;97618.47;5103003;28;21298;-71
2024/03/28 10:13:37;;;;;;;0.95;0.70;;;;;;;17.27;66.20;97618.47;5100525;28;20165;-74
2024/03/28 10:16:07;;;;;;;1.20;0.75;;;;;;;17.11;66.28;97615.88;5102530;28;20479;-72
2024/03/28 10:18:38;;;;;;;1.65;0.82;;;;;;;16.78;67.02;97614.25;5102226;29;20078;-73
2024/03/28 10:21:11;;;;;;;1.63;0.60;;;;;;;16.57;66.58;97611.25;5102669;29;20030;-73
2024/03/28 10:23:42;;;;;;;0.60;0.50;;;;;;;16.55;68.74;97607.16;5099506;29;20094;-72
2024/03/28 10:26:16;;;;;;;1.27;0.63;;;;;;;16.70;69.16;97606.31;5103400;29;20039;-74
2024/03/28 10:28:46;;;;;;;0.88;0.55;;;;;;;16.72;68.74;97614.88;5101321;29;20035;-74
2024/03/28 10:31:24;;;;;;;1.17;0.80;;;;;;;16.59;68.04;97619.81;5104437;28;20372;-74
2024/03/28 10:33:54;;;;;;;1.73;0.90;;;;;;;16.77;67.79;97628.44;5104138;29;20047;-73
2024/03/28 10:36:24;;;;;;;0.77;0.45;;;;;;;16.46;66.99;97630.03;5108946;28;20034;-73
2024/03/28 10:39:02;;;;;;;0.77;0.52;;;;;;;16.39;68.59;97621.13;5106210;28;20871;-74
2024/03/28 10:41:33;;;;;;;1.95;0.60;;;;;;;16.33;68.85;97639.34;5108424;29;20051;-73
2024/03/28 10:44:04;;;;;;;2.35;0.50;;;;;;;16.61;69.31;97628.41;5109292;29;20062;-74
2024/03/28 10:46:38;;;;;;;0.90;0.60;;;;;;;16.46;67.76;97643.22;5106275;29;20532;-74
2024/03/28 10:49:11;;;;;;;1.58;0.85;;;;;;;16.32;68.98;97643.81;5101635;28;20074;-74
2024/03/28 10:51:49;;;;;;;0.75;0.50;;;;;;;16.39;67.50;97649.31;5105255;29;20044;-74
2024/03/28 10:54:28;;;;;;;1.02;0.45;;;;;;;15.93;65.76;97653.25;5126622;23;20047;-75
2024/03/28 10:57:03;;;;;;;0.47;0.30;;;;;;;15.55;66.86;97655.53;5097837;28;20514;-76
2024/03/28 10:59:34;;;;;;;0.40;0.40;;;;;;;15.49;67.71;97670.13;5102775;29;20077;-75
2024/03/28 11:02:05;;;;;;;0.52;0.30;;;;;;;15.30;68.36;97672.16;5101738;28;20126;-75
2024/03/28 11:04:36;;;;;;;0.30;0.30;;;;;;;15.08;69.51;97676.09;5101726;29;20031;-73
2024/03/28 11:07:07;;;;;;;1.00;0.30;;;;;;;15.05;68.39;97665.84;5100771;29;20035;-73
2024/03/28 11:09:39;;;;;;;1.15;0.30;;;;;;;15.10;68.13;97673.28;5107445;29;20495;-75
2024/03/28 11:12:09;;;;;;;0.52;0.30;;;;;;;14.81;66.49;97687.69;5102675;29;20031;-75
2024/03/28 11:14:40;;;;;;;2.58;1.30;;;;;;;14.94;67.86;97678.41;5103897;28;20478;-75
2024/03/28 11:17:11;;;;;;;0.52;0.30;;;;;;;14.88;69.36;97677.22;5107349;29;20035;-75
2024/03/28 11:19:45;;;;;;;0.85;0.40;;;;;;;15.05;68.23;97691.34;5106263;29;20061;-76
2024/03/28 11:22:22;;;;;;;0.70;0.30;;;;;;;15.16;68.53;97697.19;5101154;28;20024;-76
2024/03/28 11:24:52;;;;;;;0.50;0.30;;;;;;;14.98;68.91;97706.91;5102564;29;20035;-75
2024/03/28 11:27:26;;;;;;;0.70;0.40;;;;;;;14.68;69.48;97721.41;5104771;28;20035;-75
2024/03/28 11:30:07;;;;;;;0.40;0.30;;;;;;;14.47;69.52;97723.47;5103343;28;20034;-75
2024/03/28 11:32:38;;;;;;;0.82;0.38;;;;;;;14.42;70.74;97742.31;5107372;28;20910;-75
2024/03/28 11:35:10;;;;;;;2.38;0.40;;;;;;;14.17;71.26;97744.81;5102685;29;20027;-76
2024/03/28 11:37:40;;;;;;;1.10;0.35;;;;;;;14.04;72.42;97745.09;5103428;29;20467;-75
2024/03/28 11:40:11;;;;;;;0.32;0.25;;;;;;;14.12;71.55;97754.88;5103157;28;20134;-75
2024/03/28 11:42:41;;;;;;;0.70;0.50;;;;;;;13.94;71.08;97764.50;5103912;28;20090;-75
2024/03/28 11:45:12;;;;;;;0.30;0.20;;;;;;;13.93;72.29;97768.09;5104150;29;20032;-75
2024/03/28 11:47:43;;;;;;;2.67;0.63;;;;;;;13.70;72.46;97775.47;5103852;28;20035;-73
2024/03/28 11:50:14;;;;;;;0.63;0.35;;;;;;;13.41;73.83;97789.63;5105033;28;20074;-74
2024/03/28 11:52:44;;;;;;;0.30;0.28;;;;;;;13.40;74.85;97790.59;5102448;29;20118;-74
2024/03/28 11:55:15;;;;;;;0.22;0.22;;;;;;;13.04;76.41;97797.38;5102890;28;20114;-74